Terminal Aerodrome Forecast
Issued by NWS

Home | Current Version | Previous Version | Text Only | Print | Product List | Glossary On
Versions: 1 2 3 4 5 6 7 8 9 10 11 12 13 14 15 16 17 18 19
000
FTUS46 KLOX 282300 RRA
TAFBUR
TAF
KBUR 282340Z 0100/0124 18012KT P6SM VCSH SCT025 OVC050
     FM010300 18007KT 6SM -SHRA OVC035
     FM010600 VRB03KT 6SM -SHRA OVC035 PROB30 0111/0115 22020KT
      -TSRA OVC030CB
     FM011500 08006KT P6SM -SHRA SCT025 OVC040
     FM011800 16007KT P6SM -SHRA SCT025 OVC050=

USA.gov is the U.S. government's official web portal to all federal, state and local government web resources and services.